createdAt,value
2018-05-21T00:00:45.293Z,16.91
2018-05-21T00:01:45.303Z,16.81
2018-05-21T00:03:38.211Z,16.86
2018-05-21T00:04:38.237Z,16.81
2018-05-21T00:06:31.161Z,16.79
2018-05-21T00:07:31.165Z,16.83
2018-05-21T00:09:24.093Z,16.78
2018-05-21T00:10:24.097Z,16.78
2018-05-21T00:12:17.009Z,16.67
2018-05-21T00:13:17.031Z,16.70
2018-05-21T00:15:09.963Z,16.75
2018-05-21T00:16:09.964Z,16.66
2018-05-21T00:18:02.878Z,16.64
2018-05-21T00:19:02.905Z,16.64
2018-05-21T00:20:55.831Z,16.64
2018-05-21T00:21:55.835Z,16.67
2018-05-21T00:23:49.238Z,16.64
2018-05-21T00:24:49.262Z,16.61
2018-05-21T00:26:42.189Z,16.67
2018-05-21T00:27:42.194Z,16.64
2018-05-21T00:29:35.128Z,16.58
2018-05-21T00:30:35.134Z,16.57
2018-05-21T00:32:28.040Z,16.58
2018-05-21T00:33:28.061Z,16.56
2018-05-21T00:35:21.482Z,16.57
2018-05-21T00:36:21.491Z,16.57
2018-05-21T00:38:14.399Z,16.63
2018-05-21T00:39:14.419Z,16.61
2018-05-21T00:41:07.350Z,16.66
2018-05-21T00:42:07.353Z,16.61
2018-05-21T00:44:00.262Z,16.52
2018-05-21T00:45:00.284Z,16.53
2018-05-21T00:46:53.214Z,16.52
2018-05-21T00:47:53.219Z,16.53
2018-05-21T00:49:46.727Z,16.45
2018-05-21T00:50:46.731Z,16.46
2018-05-21T00:52:39.661Z,16.46
2018-05-21T00:53:39.684Z,16.38
2018-05-21T00:55:32.634Z,16.41
2018-05-21T00:56:32.643Z,16.30
2018-05-21T00:58:25.571Z,16.35
2018-05-21T00:59:25.597Z,16.34
2018-05-21T01:01:19.569Z,16.34
2018-05-21T01:02:19.575Z,16.34
2018-05-21T01:04:13.018Z,16.34
2018-05-21T01:05:13.040Z,16.34
2018-05-21T01:07:06.502Z,16.25
2018-05-21T01:08:06.508Z,16.17
2018-05-21T01:09:59.462Z,16.14
2018-05-21T01:10:59.457Z,16.21
2018-05-21T01:12:52.389Z,16.12
2018-05-21T01:13:52.411Z,16.09
2018-05-21T01:15:45.421Z,16.11
2018-05-21T01:16:45.365Z,16.09
2018-05-21T01:18:38.296Z,16.08
2018-05-21T01:19:38.320Z,16.05
2018-05-21T01:21:31.783Z,16.05
2018-05-21T01:22:31.786Z,16.04
2018-05-21T01:24:27.277Z,16.00
2018-05-21T01:25:27.302Z,16.00
2018-05-21T01:27:20.766Z,15.80
2018-05-21T01:28:20.767Z,15.89
2018-05-21T01:30:13.717Z,15.83
2018-05-21T01:31:13.720Z,15.75
2018-05-21T01:33:06.652Z,15.80
2018-05-21T01:34:06.673Z,15.80
2018-05-21T01:35:59.630Z,15.78
2018-05-21T01:36:59.628Z,15.74
2018-05-21T01:38:52.564Z,15.86
2018-05-21T01:39:52.582Z,15.80
2018-05-21T01:41:45.602Z,15.64
2018-05-21T01:42:45.536Z,15.62
2018-05-21T01:44:38.475Z,15.62
2018-05-21T01:45:38.495Z,15.57
2018-05-21T01:47:31.444Z,15.47
2018-05-21T01:48:31.446Z,15.53
2018-05-21T01:50:24.396Z,15.54
2018-05-21T01:51:24.399Z,15.50
2018-05-21T01:53:17.330Z,15.59
2018-05-21T01:54:17.352Z,15.54
2018-05-21T01:56:10.302Z,15.49
2018-05-21T01:57:10.336Z,15.44
2018-05-21T01:59:03.240Z,15.53
2018-05-21T02:00:03.261Z,15.49
2018-05-21T02:01:57.749Z,15.50
2018-05-21T02:02:57.752Z,15.46
2018-05-21T02:04:50.690Z,15.39
2018-05-21T02:05:50.707Z,15.41
2018-05-21T02:07:43.656Z,15.50
2018-05-21T02:08:43.658Z,15.39
2018-05-21T02:10:36.609Z,15.46
2018-05-21T02:11:36.612Z,15.46
2018-05-21T02:13:29.544Z,15.39
2018-05-21T02:14:29.567Z,15.38
2018-05-21T02:16:22.519Z,15.35
2018-05-21T02:17:22.524Z,15.44
2018-05-21T02:19:15.462Z,15.44
2018-05-21T02:20:15.480Z,15.35
2018-05-21T02:22:08.434Z,15.38
2018-05-21T02:23:08.435Z,15.35
2018-05-21T02:25:01.371Z,15.38
2018-05-21T02:26:01.387Z,15.36
2018-05-21T02:27:57.408Z,15.39
2018-05-21T02:28:57.410Z,15.35
2018-05-21T02:30:50.364Z,15.32
2018-05-21T02:31:50.364Z,15.28
2018-05-21T02:33:43.297Z,15.20
2018-05-21T02:34:43.320Z,15.14
2018-05-21T02:36:36.274Z,15.17
2018-05-21T02:37:36.277Z,15.20
2018-05-21T02:39:29.214Z,15.07
2018-05-21T02:40:29.229Z,15.16
2018-05-21T02:42:22.177Z,15.06
2018-05-21T02:43:22.183Z,14.99
2018-05-21T02:45:15.114Z,14.88
2018-05-21T02:46:15.134Z,14.80
2018-05-21T02:48:08.090Z,14.62
2018-05-21T02:49:08.088Z,14.69
2018-05-21T02:51:01.040Z,14.54
2018-05-21T02:52:01.046Z,14.51
2018-05-21T02:53:53.976Z,14.45
2018-05-21T02:54:53.998Z,14.43
2018-05-21T02:56:47.464Z,14.42
2018-05-21T02:57:47.462Z,14.29
2018-05-21T02:59:40.402Z,14.36
2018-05-21T03:00:40.418Z,14.45
2018-05-21T03:02:33.371Z,14.32
2018-05-21T03:03:33.377Z,14.33
2018-05-21T03:05:26.312Z,14.29
2018-05-21T03:06:26.327Z,14.28
2018-05-21T03:08:19.279Z,14.17
2018-05-21T03:09:19.281Z,14.28
2018-05-21T03:11:12.234Z,14.12
2018-05-21T03:12:12.233Z,14.12
2018-05-21T03:14:05.168Z,14.10
2018-05-21T03:15:05.190Z,14.12
2018-05-21T03:16:58.653Z,13.89
2018-05-21T03:17:58.660Z,14.06
2018-05-21T03:19:52.101Z,14.00
2018-05-21T03:20:52.119Z,13.99
2018-05-21T03:22:45.078Z,14.02
2018-05-21T03:23:45.076Z,13.88
2018-05-21T03:25:38.012Z,13.91
2018-05-21T03:26:38.029Z,13.92
2018-05-21T03:28:30.980Z,13.91
2018-05-21T03:29:30.984Z,13.89
2018-05-21T03:31:23.934Z,13.88
2018-05-21T03:32:23.938Z,13.89
2018-05-21T03:34:16.877Z,13.91
2018-05-21T03:35:16.894Z,13.88
2018-05-21T03:37:09.844Z,13.91
2018-05-21T03:38:09.847Z,13.87
2018-05-21T03:40:02.790Z,13.95
2018-05-21T03:41:02.800Z,14.04
2018-05-21T03:42:55.750Z,13.96
2018-05-21T03:43:55.757Z,13.97
2018-05-21T03:45:49.198Z,14.07
2018-05-21T03:46:49.219Z,14.15
2018-05-21T03:48:42.172Z,14.17
2018-05-21T03:49:42.173Z,14.32
2018-05-21T03:51:35.112Z,14.51
2018-05-21T03:52:35.111Z,14.70
2018-05-21T03:54:28.023Z,15.23
2018-05-21T03:55:28.042Z,15.41
2018-05-21T03:57:21.463Z,15.83
2018-05-21T03:58:21.466Z,16.09
2018-05-21T04:00:14.377Z,16.53
2018-05-21T04:01:14.396Z,16.83
2018-05-21T04:03:07.325Z,17.19
2018-05-21T04:04:07.327Z,17.48
2018-05-21T04:06:00.289Z,17.72
2018-05-21T04:07:00.310Z,17.82
2018-05-21T04:08:54.799Z,18.25
2018-05-21T04:09:54.803Z,18.42
2018-05-21T04:11:49.348Z,18.69
2018-05-21T04:12:49.293Z,18.78
2018-05-21T04:14:42.235Z,19.21
2018-05-21T04:15:42.249Z,19.29
2018-05-21T04:17:35.709Z,19.47
2018-05-21T04:18:35.715Z,19.51
2018-05-21T04:20:28.646Z,19.77
2018-05-21T04:21:28.673Z,19.96
2018-05-21T04:23:23.155Z,20.13
2018-05-21T04:24:23.161Z,20.36
2018-05-21T04:26:16.089Z,20.77
2018-05-21T04:27:16.120Z,20.97
2018-05-21T04:29:09.062Z,21.24
2018-05-21T04:30:09.068Z,21.43
2018-05-21T04:32:02.016Z,21.54
2018-05-21T04:33:02.026Z,21.83
2018-05-21T04:34:55.470Z,22.10
2018-05-21T04:35:55.495Z,22.22
2018-05-21T04:37:48.439Z,22.46
2018-05-21T04:38:48.449Z,22.70
2018-05-21T04:40:41.374Z,22.92
2018-05-21T04:41:41.403Z,23.07
2018-05-21T04:43:34.345Z,23.40
2018-05-21T04:44:34.357Z,23.61
2018-05-21T04:46:27.278Z,23.76
2018-05-21T04:47:27.307Z,23.61
2018-05-21T04:49:20.254Z,23.36
2018-05-21T04:50:20.265Z,23.33
2018-05-21T04:52:13.315Z,23.40
2018-05-21T04:53:13.325Z,23.47
2018-05-21T04:55:06.352Z,23.75
2018-05-21T04:56:06.380Z,24.10
2018-05-21T04:57:59.427Z,24.62
2018-05-21T04:58:59.438Z,24.71
2018-05-21T05:00:52.463Z,24.87
2018-05-21T05:01:52.495Z,25.03
2018-05-21T05:03:45.540Z,25.30
2018-05-21T05:04:45.551Z,25.40
2018-05-21T05:06:38.577Z,25.39
2018-05-21T05:07:38.607Z,25.50
2018-05-21T05:09:31.653Z,25.61
2018-05-21T05:10:31.663Z,25.67
2018-05-21T05:12:24.713Z,25.67
2018-05-21T05:13:24.720Z,25.73
2018-05-21T05:15:17.748Z,25.73
2018-05-21T05:16:17.779Z,25.95
2018-05-21T05:18:10.823Z,26.37
2018-05-21T05:19:10.835Z,26.44
2018-05-21T05:21:03.912Z,26.35
2018-05-21T05:22:03.890Z,26.35
2018-05-21T05:23:56.937Z,26.17
2018-05-21T05:24:56.947Z,26.10
2018-05-21T05:26:49.974Z,26.29
2018-05-21T05:27:50.005Z,26.43
2018-05-21T05:29:43.049Z,26.52
2018-05-21T05:30:43.061Z,26.48
2018-05-21T05:32:36.105Z,26.62
2018-05-21T05:33:36.120Z,26.65
2018-05-21T05:35:29.144Z,26.75
2018-05-21T05:36:29.182Z,26.65
2018-05-21T05:38:22.219Z,26.37
2018-05-21T05:39:22.236Z,26.44
2018-05-21T05:41:15.257Z,26.35
2018-05-21T05:42:15.288Z,26.45
2018-05-21T05:44:08.333Z,26.45
2018-05-21T05:45:08.348Z,26.45
2018-05-21T05:47:01.372Z,26.44
2018-05-21T05:48:01.403Z,26.39
2018-05-21T05:49:54.451Z,25.80
2018-05-21T05:50:54.464Z,25.46
2018-05-21T05:52:47.503Z,24.90
2018-05-21T05:53:47.517Z,24.69
2018-05-21T05:55:40.540Z,24.58
2018-05-21T05:56:40.572Z,24.52
2018-05-21T05:58:34.023Z,24.53
2018-05-21T05:59:34.038Z,24.52
2018-05-21T06:01:27.061Z,24.64
2018-05-21T06:02:27.094Z,24.68
2018-05-21T06:04:20.140Z,24.67
2018-05-21T06:05:20.152Z,24.81
2018-05-21T06:07:13.585Z,24.90
2018-05-21T06:08:13.617Z,25.05
2018-05-21T06:10:06.661Z,25.21
2018-05-21T06:11:06.675Z,25.36
2018-05-21T06:12:59.716Z,25.02
2018-05-21T06:13:59.729Z,24.77
2018-05-21T06:15:52.755Z,24.83
2018-05-21T06:16:52.789Z,24.76
2018-05-21T06:18:45.831Z,24.58
2018-05-21T06:19:45.847Z,24.60
2018-05-21T06:21:38.868Z,24.76
2018-05-21T06:22:38.902Z,24.42
2018-05-21T06:24:31.947Z,24.28
2018-05-21T06:25:31.960Z,24.34
2018-05-21T06:27:24.983Z,24.47
2018-05-21T06:28:25.017Z,24.69
2018-05-21T06:30:18.055Z,24.99
2018-05-21T06:31:18.074Z,25.20
2018-05-21T06:33:11.115Z,25.50
2018-05-21T06:34:11.237Z,25.55
2018-05-21T06:36:04.152Z,25.60
2018-05-21T06:37:04.184Z,25.75
2018-05-21T06:38:57.228Z,25.88
2018-05-21T06:39:57.242Z,26.10
2018-05-21T06:41:50.783Z,26.05
2018-05-21T06:42:50.813Z,25.94
2018-05-21T06:44:43.893Z,26.12
2018-05-21T06:45:43.812Z,26.29
2018-05-21T06:47:36.793Z,25.94
2018-05-21T06:48:36.824Z,25.72
2018-05-21T06:50:29.862Z,25.61
2018-05-21T06:51:29.879Z,25.58
2018-05-21T06:53:22.918Z,25.54
2018-05-21T06:54:22.933Z,25.39
2018-05-21T06:56:15.957Z,25.32
2018-05-21T06:57:15.992Z,25.33
2018-05-21T06:59:09.033Z,25.40
2018-05-21T07:00:09.047Z,25.35
2018-05-21T07:02:03.505Z,25.39
2018-05-21T07:03:03.540Z,25.20
2018-05-21T07:04:56.581Z,25.06
2018-05-21T07:05:56.596Z,25.10
2018-05-21T07:07:49.617Z,25.46
2018-05-21T07:08:49.649Z,25.52
2018-05-21T07:10:42.692Z,25.39
2018-05-21T07:11:42.708Z,25.33
2018-05-21T07:13:35.749Z,25.25
2018-05-21T07:14:35.767Z,25.33
2018-05-21T07:16:29.300Z,24.91
2018-05-21T07:17:29.333Z,24.76
2018-05-21T07:19:22.374Z,24.76
2018-05-21T07:20:22.388Z,24.68
2018-05-21T07:22:16.844Z,24.57
2018-05-21T07:23:16.876Z,24.46
2018-05-21T07:25:09.823Z,24.45
2018-05-21T07:26:09.834Z,24.45
2018-05-21T07:28:02.854Z,24.27
2018-05-21T07:29:02.884Z,24.22
2018-05-21T07:30:55.928Z,23.95
2018-05-21T07:31:55.941Z,23.70
2018-05-21T07:33:48.985Z,23.76
2018-05-21T07:34:48.996Z,23.76
2018-05-21T07:36:42.022Z,23.68
2018-05-21T07:37:42.054Z,23.60
2018-05-21T07:39:35.619Z,23.58
2018-05-21T07:40:35.630Z,23.55
2018-05-21T07:42:28.647Z,23.55
2018-05-21T07:43:28.677Z,23.46
2018-05-21T07:45:22.132Z,23.12
2018-05-21T07:46:22.141Z,23.05
2018-05-21T07:48:15.169Z,23.00
2018-05-21T07:49:15.199Z,23.12
2018-05-21T07:51:08.632Z,23.31
2018-05-21T07:52:08.645Z,23.31
2018-05-21T07:54:01.609Z,23.20
2018-05-21T07:55:01.620Z,23.23
2018-05-21T07:56:54.646Z,23.22
2018-05-21T07:57:54.676Z,23.17
2018-05-21T07:59:47.722Z,23.15
2018-05-21T08:00:47.732Z,23.13
2018-05-21T08:02:40.759Z,23.01
2018-05-21T08:03:40.786Z,23.10
2018-05-21T08:05:33.834Z,22.95
2018-05-21T08:06:33.846Z,22.92
2018-05-21T08:08:26.872Z,23.07
2018-05-21T08:09:26.899Z,23.04
2018-05-21T08:11:20.356Z,23.22
2018-05-21T08:12:20.367Z,23.22
2018-05-21T08:14:13.313Z,23.22
2018-05-21T08:15:13.322Z,23.39
2018-05-21T08:17:06.350Z,23.57
2018-05-21T08:18:06.377Z,23.70
2018-05-21T08:19:59.423Z,23.72
2018-05-21T08:20:59.434Z,23.80
2018-05-21T08:22:52.871Z,23.80
2018-05-21T08:23:52.901Z,23.72
2018-05-21T08:25:56.323Z,23.53
2018-05-21T08:26:46.168Z,23.58
2018-05-21T08:28:39.192Z,23.72
2018-05-21T08:29:48.456Z,23.76
2018-05-21T08:31:32.265Z,23.68
2018-05-21T08:32:32.277Z,23.60
2018-05-21T08:34:33.804Z,23.43
2018-05-21T08:35:25.762Z,23.35
2018-05-21T08:37:18.767Z,23.23
2018-05-21T08:38:28.041Z,23.35
2018-05-21T08:40:20.991Z,23.27
2018-05-21T08:41:13.292Z,23.36
2018-05-21T08:43:06.314Z,23.39
2018-05-21T08:44:06.342Z,23.63
2018-05-21T08:45:59.390Z,23.78
2018-05-21T08:46:59.401Z,23.79
2018-05-21T08:48:53.455Z,23.90
2018-05-21T08:49:53.379Z,23.97
2018-05-21T08:51:46.425Z,23.87
2018-05-21T08:52:46.435Z,23.94
2018-05-21T08:54:39.494Z,23.85
2018-05-21T08:55:39.505Z,23.79
2018-05-21T08:57:32.520Z,23.95
2018-05-21T08:58:32.550Z,23.94
2018-05-21T09:00:26.061Z,24.15
2018-05-21T09:01:26.015Z,24.15
2018-05-21T09:03:19.041Z,24.16
2018-05-21T09:04:19.071Z,24.24
2018-05-21T09:06:15.091Z,24.20
2018-05-21T09:07:15.097Z,24.13
2018-05-21T09:09:08.124Z,24.39
2018-05-21T09:10:08.213Z,24.35
2018-05-21T09:12:01.612Z,24.52
2018-05-21T09:13:01.620Z,24.52
2018-05-21T09:14:55.088Z,24.64
2018-05-21T09:15:55.088Z,24.67
2018-05-21T09:17:48.114Z,24.90
2018-05-21T09:18:48.144Z,24.90
2018-05-21T09:20:41.599Z,24.78
2018-05-21T09:21:41.607Z,24.83
2018-05-21T09:23:34.641Z,24.78
2018-05-21T09:24:34.666Z,24.52
2018-05-21T09:26:27.713Z,24.43
2018-05-21T09:27:27.723Z,24.47
2018-05-21T09:29:20.749Z,24.65
2018-05-21T09:30:20.779Z,24.85
2018-05-21T09:32:14.235Z,24.85
2018-05-21T09:33:14.246Z,24.91
2018-05-21T09:35:07.294Z,24.93
2018-05-21T09:36:07.300Z,24.87
2018-05-21T09:38:00.331Z,24.80
2018-05-21T09:39:17.485Z,24.64
2018-05-21T09:40:53.304Z,24.64
2018-05-21T09:42:00.452Z,24.60
2018-05-21T09:43:53.979Z,24.69
2018-05-21T09:44:53.864Z,24.64
2018-05-21T09:46:46.811Z,24.73
2018-05-21T09:47:46.819Z,24.65
2018-05-21T09:49:32.646Z,24.57
2018-05-21T09:50:32.644Z,24.62
2018-05-21T09:52:25.557Z,24.58
2018-05-21T09:53:25.587Z,24.68
2018-05-21T09:55:18.710Z,24.77
2018-05-21T09:56:18.717Z,24.88
2018-05-21T09:58:11.643Z,24.95
2018-05-21T09:59:11.665Z,24.95
2018-05-21T10:01:05.124Z,25.08
2018-05-21T10:02:05.117Z,25.05
2018-05-21T10:03:58.043Z,25.24
2018-05-21T10:04:58.119Z,25.20
2018-05-21T10:06:51.008Z,25.10
2018-05-21T10:07:51.014Z,25.15
2018-05-21T10:09:43.931Z,24.78
2018-05-21T10:10:43.962Z,24.93
2018-05-21T10:12:36.903Z,24.80
2018-05-21T10:13:36.911Z,24.65
2018-05-21T10:15:29.857Z,24.61
2018-05-21T10:16:29.860Z,24.61
2018-05-21T10:18:23.782Z,24.55
2018-05-21T10:19:23.884Z,24.58
2018-05-21T10:21:16.749Z,24.58
2018-05-21T10:22:16.759Z,24.60
2018-05-21T10:24:09.755Z,24.73
2018-05-21T10:25:09.705Z,24.73
2018-05-21T10:27:02.645Z,24.67
2018-05-21T10:28:02.654Z,24.69
2018-05-21T10:29:56.596Z,24.88
2018-05-21T10:30:56.594Z,24.88
2018-05-21T10:32:49.515Z,25.10
2018-05-21T10:33:49.542Z,25.09
2018-05-21T10:35:42.489Z,25.15
2018-05-21T10:36:42.489Z,25.06
2018-05-21T10:38:35.410Z,25.20
2018-05-21T10:39:35.438Z,25.33
2018-05-21T10:41:28.380Z,25.42
2018-05-21T10:42:28.390Z,25.39
2018-05-21T10:44:21.308Z,25.50
2018-05-21T10:45:21.335Z,25.36
2018-05-21T10:47:14.300Z,25.30
2018-05-21T10:48:14.296Z,25.30
2018-05-21T10:50:07.226Z,25.28
2018-05-21T10:51:07.233Z,25.08
2018-05-21T10:53:00.176Z,24.88
2018-05-21T10:54:00.180Z,24.71
2018-05-21T10:55:53.128Z,24.58
2018-05-21T10:56:53.134Z,24.62
2018-05-21T10:58:46.062Z,24.58
2018-05-21T10:59:46.081Z,24.61
2018-05-21T11:01:39.212Z,24.60
2018-05-21T11:02:39.216Z,24.69
2018-05-21T11:04:32.358Z,24.93
2018-05-21T11:05:32.392Z,25.02
2018-05-21T11:07:25.320Z,25.09
2018-05-21T11:08:25.329Z,25.09
2018-05-21T11:10:18.459Z,25.27
2018-05-21T11:11:18.487Z,25.23
2018-05-21T11:13:11.429Z,25.25
2018-05-21T11:14:11.437Z,25.32
2018-05-21T11:16:04.376Z,25.38
2018-05-21T11:17:04.385Z,25.45
2018-05-21T11:18:57.304Z,25.58
2018-05-21T11:19:57.332Z,25.35
2018-05-21T11:21:50.274Z,25.35
2018-05-21T11:22:50.279Z,25.33
2018-05-21T11:24:43.218Z,25.20
2018-05-21T11:25:43.231Z,25.25
2018-05-21T11:27:37.170Z,25.32
2018-05-21T11:28:37.176Z,25.38
2018-05-21T11:30:30.093Z,25.36
2018-05-21T11:31:30.122Z,25.46
2018-05-21T11:33:23.063Z,25.55
2018-05-21T11:34:23.070Z,25.55
2018-05-21T11:36:17.008Z,25.28
2018-05-21T11:37:17.018Z,25.24
2018-05-21T11:39:09.934Z,25.20
2018-05-21T11:40:09.965Z,25.33
2018-05-21T11:42:02.902Z,25.33
2018-05-21T11:43:02.912Z,25.28
2018-05-21T11:44:55.832Z,25.40
2018-05-21T11:45:55.859Z,25.40
2018-05-21T11:47:48.802Z,25.33
2018-05-21T11:48:48.807Z,25.35
2018-05-21T11:50:41.840Z,25.42
2018-05-21T11:51:41.760Z,25.33
2018-05-21T11:53:34.677Z,25.32
2018-05-21T11:54:34.705Z,25.35
2018-05-21T11:56:27.643Z,25.43
2018-05-21T11:57:27.651Z,25.32
2018-05-21T11:59:20.574Z,25.30
2018-05-21T12:00:20.602Z,25.28
2018-05-21T12:02:13.542Z,25.33
2018-05-21T12:03:13.549Z,25.35
2018-05-21T12:05:06.469Z,25.47
2018-05-21T12:06:06.498Z,25.50
2018-05-21T12:07:59.438Z,25.45
2018-05-21T12:08:59.445Z,25.51
2018-05-21T12:10:52.386Z,25.55
2018-05-21T12:11:52.393Z,25.61
2018-05-21T12:13:45.333Z,25.54
2018-05-21T12:14:45.342Z,25.67
2018-05-21T12:16:38.290Z,25.65
2018-05-21T12:17:38.296Z,25.72
2018-05-21T12:19:31.222Z,25.60
2018-05-21T12:20:31.249Z,25.38
2018-05-21T12:22:24.286Z,25.23
2018-05-21T12:23:24.212Z,25.21
2018-05-21T12:25:17.314Z,25.23
2018-05-21T12:26:17.343Z,25.18
2018-05-21T12:28:11.285Z,25.09
2018-05-21T12:29:11.289Z,25.13
2018-05-21T12:31:04.705Z,25.13
2018-05-21T12:32:04.735Z,25.25
2018-05-21T12:33:57.681Z,25.27
2018-05-21T12:34:57.682Z,25.33
2018-05-21T12:36:50.623Z,25.54
2018-05-21T12:37:50.632Z,25.54
2018-05-21T12:39:43.553Z,25.55
2018-05-21T12:40:43.581Z,25.47
2018-05-21T12:42:36.520Z,25.50
2018-05-21T12:43:36.526Z,25.58
2018-05-21T12:45:29.450Z,25.70
2018-05-21T12:46:29.477Z,25.64
2018-05-21T12:48:22.417Z,25.62
2018-05-21T12:49:22.427Z,25.62
2018-05-21T12:51:15.356Z,25.77
2018-05-21T12:52:15.386Z,25.85
2018-05-21T12:54:08.514Z,25.88
2018-05-21T12:55:08.521Z,25.80
2018-05-21T12:57:01.466Z,25.76
2018-05-21T12:58:01.481Z,25.90
2018-05-21T12:59:54.397Z,26.05
2018-05-21T13:00:54.423Z,25.91
2018-05-21T13:02:47.366Z,25.79
2018-05-21T13:03:47.389Z,25.88
2018-05-21T13:05:40.570Z,25.94
2018-05-21T13:06:40.546Z,26.05
2018-05-21T13:08:33.495Z,26.13
2018-05-21T13:09:33.496Z,25.98
2018-05-21T13:11:26.450Z,25.87
2018-05-21T13:12:26.478Z,25.69
2018-05-21T13:14:19.937Z,25.47
2018-05-21T13:15:19.987Z,25.61
2018-05-21T13:17:12.861Z,25.45
2018-05-21T13:18:12.867Z,25.46
2018-05-21T13:20:06.284Z,25.72
2018-05-21T13:21:06.309Z,25.58
2018-05-21T13:22:59.254Z,25.55
2018-05-21T13:23:59.303Z,25.60
2018-05-21T13:25:52.177Z,25.69
2018-05-21T13:26:52.210Z,25.61
2018-05-21T13:28:45.147Z,25.57
2018-05-21T13:29:45.155Z,25.64
2018-05-21T13:31:38.077Z,25.70
2018-05-21T13:32:38.109Z,25.67
2018-05-21T13:34:31.056Z,25.67
2018-05-21T13:35:31.051Z,25.72
2018-05-21T13:37:24.001Z,25.62
2018-05-21T13:38:24.039Z,25.57
2018-05-21T13:40:16.925Z,25.50
2018-05-21T13:41:16.954Z,25.58
2018-05-21T13:43:09.953Z,25.64
2018-05-21T13:44:09.903Z,25.80
2018-05-21T13:46:02.827Z,26.01
2018-05-21T13:47:02.852Z,26.07
2018-05-21T13:48:55.803Z,25.98
2018-05-21T13:49:55.809Z,26.07
2018-05-21T13:51:49.219Z,26.30
2018-05-21T13:52:49.317Z,26.29
2018-05-21T13:54:42.395Z,26.35
2018-05-21T13:55:42.403Z,26.37
2018-05-21T13:57:35.344Z,26.20
2018-05-21T13:58:35.352Z,26.23
2018-05-21T14:00:28.274Z,26.10
2018-05-21T14:01:28.304Z,26.10
2018-05-21T14:03:21.244Z,26.10
2018-05-21T14:04:21.253Z,26.09
2018-05-21T14:06:14.174Z,26.05
2018-05-21T14:07:14.202Z,25.95
2018-05-21T14:09:07.151Z,26.09
2018-05-21T14:10:07.153Z,26.07
2018-05-21T14:12:00.075Z,26.10
2018-05-21T14:13:00.101Z,26.10
2018-05-21T14:14:53.045Z,26.10
2018-05-21T14:15:53.057Z,25.99
2018-05-21T14:17:45.990Z,26.06
2018-05-21T14:18:46.003Z,26.10
2018-05-21T14:20:38.920Z,26.12
2018-05-21T14:21:38.970Z,26.07
2018-05-21T14:23:31.889Z,25.92
2018-05-21T14:24:31.918Z,25.97
2018-05-21T14:26:24.992Z,26.13
2018-05-21T14:27:25.033Z,26.07
2018-05-21T14:29:18.156Z,26.21
2018-05-21T14:30:18.164Z,26.29
2018-05-21T14:32:11.291Z,26.09
2018-05-21T14:33:11.414Z,26.10
2018-05-21T14:35:04.765Z,25.85
2018-05-21T14:36:04.782Z,25.70
2018-05-21T14:37:57.941Z,25.80
2018-05-21T14:38:57.968Z,25.85
2018-05-21T14:40:51.073Z,25.95
2018-05-21T14:41:51.109Z,26.01
2018-05-21T14:43:44.258Z,26.10
2018-05-21T14:44:44.267Z,26.20
2018-05-21T14:46:37.188Z,26.43
2018-05-21T14:47:37.214Z,26.39
2018-05-21T14:49:30.366Z,26.60
2018-05-21T14:50:30.375Z,26.62
2018-05-21T14:52:23.508Z,26.40
2018-05-21T14:53:23.535Z,26.25
2018-05-21T14:55:16.477Z,26.25
2018-05-21T14:56:16.486Z,26.36
2018-05-21T14:58:09.648Z,26.33
2018-05-21T14:59:09.647Z,26.10
2018-05-21T15:01:02.779Z,26.12
2018-05-21T15:02:02.886Z,26.09
2018-05-21T15:03:55.957Z,26.09
2018-05-21T15:04:55.965Z,26.10
2018-05-21T15:06:49.097Z,25.90
2018-05-21T15:07:49.124Z,25.94
2018-05-21T15:09:42.066Z,25.91
2018-05-21T15:10:42.074Z,25.97
2018-05-21T15:12:35.193Z,26.10
2018-05-21T15:13:35.223Z,25.95
2018-05-21T15:15:28.401Z,26.26
2018-05-21T15:16:28.404Z,26.26
2018-05-21T15:18:21.548Z,26.28
2018-05-21T15:19:21.556Z,26.29
2018-05-21T15:21:14.688Z,26.44
2018-05-21T15:22:14.762Z,26.47
2018-05-21T15:24:07.661Z,26.51
2018-05-21T15:25:07.685Z,26.47
2018-05-21T15:27:00.592Z,26.48
2018-05-21T15:28:00.617Z,26.52
2018-05-21T15:29:53.557Z,26.54
2018-05-21T15:30:53.572Z,26.70
2018-05-21T15:32:46.709Z,26.73
2018-05-21T15:33:46.735Z,26.66
2018-05-21T15:35:39.711Z,26.32
2018-05-21T15:36:39.727Z,26.09
2018-05-21T15:38:33.158Z,25.95
2018-05-21T15:39:33.170Z,25.90
2018-05-21T15:41:27.587Z,26.05
2018-05-21T15:42:27.617Z,26.10
2018-05-21T15:44:20.558Z,26.20
2018-05-21T15:45:20.568Z,26.23
2018-05-21T15:47:13.989Z,26.33
2018-05-21T15:48:14.018Z,26.40
2018-05-21T15:50:08.455Z,26.50
2018-05-21T15:51:08.467Z,26.43
2018-05-21T15:53:01.393Z,26.62
2018-05-21T15:54:01.425Z,26.43
2018-05-21T15:55:55.870Z,26.54
2018-05-21T15:56:55.883Z,26.63
2018-05-21T15:58:48.825Z,26.65
2018-05-21T15:59:48.836Z,26.65
2018-05-21T16:01:41.761Z,26.65
2018-05-21T16:02:41.791Z,26.75
2018-05-21T16:04:35.228Z,26.84
2018-05-21T16:05:35.243Z,26.94
2018-05-21T16:07:28.658Z,26.94
2018-05-21T16:08:28.691Z,26.91
2018-05-21T16:10:22.129Z,26.88
2018-05-21T16:11:22.141Z,26.89
2018-05-21T16:13:15.578Z,26.84
2018-05-21T16:14:15.591Z,26.92
2018-05-21T16:16:08.536Z,26.87
2018-05-21T16:17:08.545Z,26.82
2018-05-21T16:19:01.986Z,26.65
2018-05-21T16:20:01.995Z,26.69
2018-05-21T16:21:55.428Z,26.77
2018-05-21T16:22:55.456Z,26.84
2018-05-21T16:24:48.895Z,26.80
2018-05-21T16:25:48.906Z,26.73
2018-05-21T16:27:42.328Z,26.81
2018-05-21T16:28:42.355Z,26.84
2018-05-21T16:30:35.298Z,26.65
2018-05-21T16:31:35.310Z,26.63
2018-05-21T16:33:29.753Z,26.65
2018-05-21T16:34:29.757Z,26.66
2018-05-21T16:36:23.195Z,26.76
2018-05-21T16:37:23.220Z,26.72
2018-05-21T16:39:16.661Z,26.70
2018-05-21T16:40:16.671Z,26.62
2018-05-21T16:42:10.185Z,26.67
2018-05-21T16:43:10.216Z,26.57
2018-05-21T16:45:03.257Z,26.26
2018-05-21T16:46:03.271Z,26.10
2018-05-21T16:47:56.295Z,25.92
2018-05-21T16:48:56.324Z,25.80
2018-05-21T16:50:49.371Z,25.90
2018-05-21T16:51:49.382Z,25.95
2018-05-21T16:53:42.426Z,26.12
2018-05-21T16:54:42.437Z,26.32
2018-05-21T16:56:35.465Z,26.28
2018-05-21T16:57:35.494Z,26.29
2018-05-21T16:59:28.537Z,26.29
2018-05-21T17:00:28.571Z,26.32
2018-05-21T17:02:21.987Z,26.32
2018-05-21T17:03:22.018Z,26.28
2018-05-21T17:05:15.470Z,26.25
2018-05-21T17:06:15.482Z,26.30
2018-05-21T17:08:08.920Z,26.32
2018-05-21T17:09:08.951Z,26.25
2018-05-21T17:11:01.994Z,26.23
2018-05-21T17:12:02.006Z,26.20
2018-05-21T17:13:55.523Z,26.12
2018-05-21T17:14:55.481Z,26.28
2018-05-21T17:16:48.496Z,26.21
2018-05-21T17:17:48.530Z,26.17
2018-05-21T17:19:41.572Z,26.10
2018-05-21T17:20:41.583Z,26.06
2018-05-21T17:22:34.609Z,26.10
2018-05-21T17:23:34.639Z,26.07
2018-05-21T17:25:27.685Z,26.06
2018-05-21T17:26:27.696Z,26.05
2018-05-21T17:28:20.724Z,26.12
2018-05-21T17:29:20.760Z,25.99
2018-05-21T17:31:13.796Z,26.12
2018-05-21T17:32:13.808Z,26.13
2018-05-21T17:34:07.265Z,26.13
2018-05-21T17:35:07.277Z,26.10
2018-05-21T17:37:00.306Z,26.10
2018-05-21T17:38:00.420Z,26.07
2018-05-21T17:39:53.788Z,25.98
2018-05-21T17:40:53.796Z,26.05
2018-05-21T17:42:46.824Z,25.92
2018-05-21T17:43:46.854Z,25.94
2018-05-21T17:45:39.898Z,25.88
2018-05-21T17:46:39.911Z,25.91
2018-05-21T17:48:32.937Z,26.01
2018-05-21T17:49:32.967Z,26.12
2018-05-21T17:51:26.012Z,26.36
2018-05-21T17:52:26.024Z,26.39
2018-05-21T17:54:19.072Z,26.63
2018-05-21T17:55:19.080Z,26.76
2018-05-21T17:57:12.187Z,26.91
2018-05-21T17:58:12.137Z,26.92
2018-05-21T18:00:05.182Z,27.02
2018-05-21T18:01:05.193Z,26.94
2018-05-21T18:02:58.226Z,27.27
2018-05-21T18:03:58.251Z,27.32
2018-05-21T18:05:51.295Z,27.18
2018-05-21T18:06:51.309Z,27.17
2018-05-21T18:08:44.796Z,27.39
2018-05-21T18:09:44.772Z,27.29
2018-05-21T18:11:37.819Z,27.43
2018-05-21T18:12:37.833Z,27.47
2018-05-21T18:14:31.287Z,27.29
2018-05-21T18:15:31.296Z,27.40
2018-05-21T18:17:24.325Z,27.32
2018-05-21T18:18:24.354Z,27.44
2018-05-21T18:20:17.401Z,27.65
2018-05-21T18:21:17.449Z,27.85
2018-05-21T18:23:10.846Z,27.81
2018-05-21T18:24:10.878Z,27.74
2018-05-21T18:26:04.328Z,27.49
2018-05-21T18:27:04.342Z,27.43
2018-05-21T18:28:57.367Z,27.14
2018-05-21T18:29:57.399Z,26.92
2018-05-21T18:31:50.447Z,26.58
2018-05-21T18:32:50.455Z,26.40
2018-05-21T18:34:43.503Z,26.06